aviador You're here:

KPQL Decoded Metar

PASCAGOULA in MS, USA
Report Time2017-09-24 22:53:00
UTC Time2017-09-24 23:07:27
Flight Rules vfr VFR
Wind010° at 07 kt
W.Decomp.*RWY 35: 6.6 kt HW 2.3 kt RCW
W.Rank010° ranks 3
Current wind is above 010° avg. (6.8)
Visibility9999 m
Phenomena:N/A
Clouds:Few 120 Hf
Expected CloudBase > 1,600 ft AGL from Temp-Dew spread
CeilingNone
Temp24°C (ISA +9)
Dew Point20°C (78% RH)
QNH1013 hPa
Density Alt1,378 ft
Elevation20 ft
Report Wrong Elevation
Raw Report
KPQL 242253Z AUTO 01007KT 10SM FEW120 24/20 A2992 RMK AO2 LTG DSNT
W AND NW SLP133 T02440200=

Extra information for KPQL:More info

Metar Taf Metar & Taf Last 4 Metars F.Rules Stats Wind Profile Meteogram Temp Stats Airport Information Weather charts Add Link Nearby VenuesMetar ALERT Operation Metar Decoded Social comments

AIRNAV info for KPQL